WetterOnline ( https://www.wetteronline.de )

Wetter aktuell Chevremont

Aktuelles Wetter: Aachen-Orsbach (231m)

6-stündlich | Neueste Meldungen
Ortszeit Temperatur Wetter
Mi, 21.08. 2:00 12.9° C wolkig
Di, 20.08. 20:00 18.3° C wolkenlos
Di, 20.08. 14:00 18.2° C wolkig
Di, 20.08. 8:00 12.4° C wolkenlos
Di, 20.08. 2:00 13.3° C wolkenlos
Mo, 19.08. 20:00 18.7° C leicht bewölkt
Mo, 19.08. 14:00 19.2° C wolkig
Mo, 19.08. 8:00 12.8° C wolkenlos
Ortszeit Temperatur Wetter
Mi, 21.08. 6:30 10.7° C wolkenlos
Mi, 21.08. 6:20 10.7° C wolkenlos
Mi, 21.08. 6:10 10.6° C fast wolkenlos
Mi, 21.08. 6:00 10.8° C leicht bewölkt
Mi, 21.08. 5:50 10.8° C leicht bewölkt
Mi, 21.08. 5:40 11.5° C leicht bewölkt
Mi, 21.08. 5:30 10.6° C leicht bewölkt
Mi, 21.08. 5:00 11.4° C leicht bewölkt
Mi, 21.08. 4:30 12.2° C wolkenlos
Mi, 21.08. 4:00 11.0° C wolkenlos
Mi, 21.08. 3:30 12.4° C leicht bewölkt
Ortszeit Relative Feuchte Sichtweite
Mi, 21.08. 2:00 77% 35 km
Di, 20.08. 20:00 56% 55 km
Di, 20.08. 14:00 55% 55 km
Di, 20.08. 8:00 84% 30 km
Di, 20.08. 2:00 80% 40 km
Mo, 19.08. 20:00 55% 65 km
Mo, 19.08. 14:00 57% 50 km
Mo, 19.08. 8:00 83% 40 km
Ortszeit Relative Feuchte Sichtweite
Mi, 21.08. 6:30 87% 35 km
Mi, 21.08. 6:20 87% -
Mi, 21.08. 6:10 86% -
Mi, 21.08. 6:00 84% 40 km
Mi, 21.08. 5:50 84% -
Mi, 21.08. 5:40 82% -
Mi, 21.08. 5:30 86% 40 km
Mi, 21.08. 5:00 83% 35 km
Mi, 21.08. 4:30 81% 45 km
Mi, 21.08. 4:00 82% 45 km
Mi, 21.08. 3:30 80% 45 km
Ortszeit Niederschlagsmenge Niederschlagsart
Mi, 21.08. 2:00 0.0 l/m2 in 6 Std. -
Di, 20.08. 20:00 0.0 l/m2 in 12 Std. -
Di, 20.08. 14:00 0.0 l/m2 in 6 Std. -
Di, 20.08. 8:00 0.1 l/m2 in 12 Std. -
Di, 20.08. 2:00 0.1 l/m2 in 6 Std. Regen
Mo, 19.08. 20:00 0.0 l/m2 in 12 Std. -
Mo, 19.08. 14:00 0.0 l/m2 in 6 Std. -
Mo, 19.08. 8:00 0.0 l/m2 in 12 Std. -
Ortszeit Niederschlagsmenge Niederschlagsart
Mi, 21.08. 6:30 0.0 l/m2 in 1 Std. -
Mi, 21.08. 6:20 keine Meldung -
Mi, 21.08. 6:10 keine Meldung -
Mi, 21.08. 6:00 0.0 l/m2 in 1 Std. -
Mi, 21.08. 5:50 keine Meldung -
Mi, 21.08. 5:40 keine Meldung -
Mi, 21.08. 5:30 0.0 l/m2 in 1 Std. -
Mi, 21.08. 5:00 0.0 l/m2 in 1 Std. -
Mi, 21.08. 4:30 0.0 l/m2 in 1 Std. -
Mi, 21.08. 4:00 0.0 l/m2 in 1 Std. -
Mi, 21.08. 3:30 0.0 l/m2 in 1 Std. -
Ortszeit Stärke Spitze Richtung
km/h Bft. km/h Grad Sektor
Mi, 21.08. 2:00 4 1 18 230° SW
Di, 20.08. 20:00 14 3 36 280° W
Di, 20.08. 14:00 17 3 28 250° W
Di, 20.08. 8:00 13 3 22 230° SW
Di, 20.08. 2:00 13 3 26 220° SW
Mo, 19.08. 20:00 13 3 43 250° W
Mo, 19.08. 14:00 18 3 40 240° SW
Mo, 19.08. 8:00 17 3 31 220° SW
Ortszeit Stärke Spitze Richtung
km/h Bft. km/h Grad Sektor
Mi, 21.08. 6:30 6 1 7 230° SW
Mi, 21.08. 6:20 6 1 - 230° SW
Mi, 21.08. 6:10 6 1 - 280° W
Mi, 21.08. 6:00 7 2 11 200° S
Mi, 21.08. 5:50 7 2 - 200° S
Mi, 21.08. 5:40 7 2 - 200° S
Mi, 21.08. 5:30 7 2 11 210° SW
Mi, 21.08. 5:00 6 1 9 260° W
Mi, 21.08. 4:30 7 2 11 220° SW
Mi, 21.08. 4:00 7 2 7 200° S
Mi, 21.08. 3:30 6 1 7 160° S
Ortszeit Untergrenze Bedeckung Gattung
total tief tief mittel hoch
Mi, 21.08. 2:00 1230 m 5/8 5/8 - - -
Di, 20.08. 20:00 - 0/8 0/8 - - -
Di, 20.08. 14:00 1380 m 7/8 1/8 - - -
Di, 20.08. 8:00 9000 m 0/8 0/8 - - -
Di, 20.08. 2:00 - 0/8 0/8 - - -
Mo, 19.08. 20:00 1500 m 3/8 3/8 - - -
Mo, 19.08. 14:00 1200 m 5/8 5/8 - - -
Mo, 19.08. 8:00 - 0/8 0/8 - - -
Ortszeit Bedeckungsgrad in Achtel und Wolkenuntergrenze
Mi, 21.08. 6:30 keine Wolken
Mi, 21.08. 6:20 keine Wolken
Mi, 21.08. 6:10 1(1290m)
Mi, 21.08. 6:00 2(1290m)
Mi, 21.08. 5:50 2(1290m)
Mi, 21.08. 5:40 3(1290m)
Mi, 21.08. 5:30 4(1200m)
Mi, 21.08. 5:00 2(1110m)
Mi, 21.08. 4:30 keine Wolken
Mi, 21.08. 4:00 keine Wolken
Mi, 21.08. 3:30 3(1140m)
Ortszeit Luftdruck NN (hPa) Tendenz (hPa in 3 Std.)
Mi, 21.08. 2:00 1028 + 1,0
Di, 20.08. 20:00 1025 + 1,0
Di, 20.08. 14:00 1023 + 0,5
Di, 20.08. 8:00 1023 + 0,9
Di, 20.08. 2:00 1021 + 1,2
Mo, 19.08. 20:00 1018 + 0,7
Mo, 19.08. 14:00 1017 + 0,8
Mo, 19.08. 8:00 1016 + 1,1
Ortszeit Luftdruck NN (hPa) Tendenz (hPa in 3 Std.)
Mi, 21.08. 6:30 1029 + 0,6
Mi, 21.08. 6:20 1029 keine Meldung
Mi, 21.08. 6:10 1029 keine Meldung
Mi, 21.08. 6:00 1029 + 0,5
Mi, 21.08. 5:50 1029 keine Meldung
Mi, 21.08. 5:40 1028 keine Meldung
Mi, 21.08. 5:30 1028 + 0,2
Mi, 21.08. 5:00 1028 + 0,2
Mi, 21.08. 4:30 1028 + 0,3
Mi, 21.08. 4:00 1028 + 0,3
Mi, 21.08. 3:30 1028 + 0,3
Ortszeit Schneehöhe (cm)
Mi, 21.08. 2:00 -
Di, 20.08. 20:00 -
Di, 20.08. 14:00 -
Di, 20.08. 8:00 -
Di, 20.08. 2:00 -
Mo, 19.08. 20:00 -
Mo, 19.08. 14:00 -
Mo, 19.08. 8:00 -
Ortszeit Schneehöhe (cm)
Mi, 21.08. 6:30 -
Mi, 21.08. 6:20 -
Mi, 21.08. 6:10 -
Mi, 21.08. 6:00 -
Mi, 21.08. 5:50 -
Mi, 21.08. 5:40 -
Mi, 21.08. 5:30 -
Mi, 21.08. 5:00 -
Mi, 21.08. 4:30 -
Mi, 21.08. 4:00 -
Mi, 21.08. 3:30 -
Link zu dieser Seite / Seite empfehlen

Das Wetter in ...